Decoded Metar for UUBW ( in ) (IATA:) | Meteo·Mobile Aviation Weather
aviador You're here:

UUBW Decoded Metar

in
Report Time2018-08-20 18:30:00
UTC Time2018-08-20 18:43:02
Flight Rules vfr VFR
Wind240° at 4 kt
W.Rank240° ranks 6
Current wind is below 240° avg. (6.5)
Visibility9999 m
Phenomena:N/A
Clouds:N/A
Expected CloudBase > 2,400 ft AGL from Temp-Dew spread
CeilingNone
Temp21°C
Dew Point15°C (69% RH)
QNH1013 hPa
Raw Report
METAR UUBW 201830Z 24002MPS CAVOK 21/15 Q1013 R30/010060 NOSIG=

Extra information for UUBW:More info

Social comments